sensor_id;sensor_type;location;lat;lon;timestamp;P1;durP1;ratioP1;P2;durP2;ratioP2
15358;SDS011;7779;49.596;11.070;2023-06-10T00:02:07;4.70;;;4.30;;
15358;SDS011;7779;49.596;11.070;2023-06-10T00:04:33;4.70;;;4.00;;
15358;SDS011;7779;49.596;11.070;2023-06-10T00:07:01;4.30;;;3.90;;
15358;SDS011;7779;49.596;11.070;2023-06-10T00:09:34;5.20;;;3.70;;
15358;SDS011;7779;49.596;11.070;2023-06-10T00:12:04;4.47;;;4.07;;
15358;SDS011;7779;49.596;11.070;2023-06-10T00:14:32;5.00;;;4.03;;
15358;SDS011;7779;49.596;11.070;2023-06-10T00:17:00;5.27;;;4.53;;
15358;SDS011;7779;49.596;11.070;2023-06-10T00:19:27;4.77;;;4.30;;
15358;SDS011;7779;49.596;11.070;2023-06-10T00:21:55;4.37;;;3.97;;
15358;SDS011;7779;49.596;11.070;2023-06-10T00:24:23;4.90;;;3.80;;
15358;SDS011;7779;49.596;11.070;2023-06-10T00:26:49;5.30;;;4.03;;
15358;SDS011;7779;49.596;11.070;2023-06-10T00:29:15;4.30;;;3.83;;
15358;SDS011;7779;49.596;11.070;2023-06-10T00:31:41;4.50;;;4.10;;
15358;SDS011;7779;49.596;11.070;2023-06-10T00:34:07;4.63;;;4.00;;
15358;SDS011;7779;49.596;11.070;2023-06-10T00:36:33;5.13;;;3.90;;
15358;SDS011;7779;49.596;11.070;2023-06-10T00:38:59;3.97;;;3.63;;
15358;SDS011;7779;49.596;11.070;2023-06-10T00:41:24;4.80;;;4.30;;
15358;SDS011;7779;49.596;11.070;2023-06-10T00:43:53;4.00;;;3.70;;
15358;SDS011;7779;49.596;11.070;2023-06-10T00:46:20;4.37;;;3.87;;
15358;SDS011;7779;49.596;11.070;2023-06-10T00:48:47;4.40;;;4.00;;
15358;SDS011;7779;49.596;11.070;2023-06-10T00:51:12;3.90;;;3.50;;
15358;SDS011;7779;49.596;11.070;2023-06-10T00:53:39;4.97;;;4.00;;
15358;SDS011;7779;49.596;11.070;2023-06-10T00:56:06;4.27;;;3.70;;
15358;SDS011;7779;49.596;11.070;2023-06-10T00:58:34;4.77;;;4.27;;
15358;SDS011;7779;49.596;11.070;2023-06-10T01:01:01;5.23;;;4.57;;
15358;SDS011;7779;49.596;11.070;2023-06-10T01:03:27;4.67;;;4.17;;
15358;SDS011;7779;49.596;11.070;2023-06-10T01:12:19;5.10;;;4.03;;
15358;SDS011;7779;49.596;11.070;2023-06-10T01:14:54;4.43;;;4.03;;
15358;SDS011;7779;49.596;11.070;2023-06-10T01:17:22;6.93;;;3.97;;
15358;SDS011;7779;49.596;11.070;2023-06-10T01:19:54;6.70;;;3.90;;
15358;SDS011;7779;49.596;11.070;2023-06-10T01:22:23;3.97;;;3.67;;
15358;SDS011;7779;49.596;11.070;2023-06-10T01:24:51;4.97;;;4.47;;
15358;SDS011;7779;49.596;11.070;2023-06-10T01:27:18;4.83;;;4.23;;
15358;SDS011;7779;49.596;11.070;2023-06-10T01:29:50;4.57;;;4.17;;
15358;SDS011;7779;49.596;11.070;2023-06-10T01:32:39;4.57;;;4.17;;
15358;SDS011;7779;49.596;11.070;2023-06-10T01:35:10;4.90;;;3.83;;
15358;SDS011;7779;49.596;11.070;2023-06-10T01:37:40;4.27;;;3.87;;
15358;SDS011;7779;49.596;11.070;2023-06-10T01:40:10;4.53;;;4.13;;
15358;SDS011;7779;49.596;11.070;2023-06-10T01:42:38;4.17;;;3.77;;
15358;SDS011;7779;49.596;11.070;2023-06-10T01:45:04;3.87;;;3.40;;
15358;SDS011;7779;49.596;11.070;2023-06-10T01:47:31;4.60;;;4.20;;
15358;SDS011;7779;49.596;11.070;2023-06-10T01:49:58;4.17;;;3.77;;
15358;SDS011;7779;49.596;11.070;2023-06-10T01:52:24;4.00;;;3.60;;
15358;SDS011;7779;49.596;11.070;2023-06-10T01:54:50;4.47;;;4.07;;
15358;SDS011;7779;49.596;11.070;2023-06-10T01:57:16;4.37;;;3.97;;
15358;SDS011;7779;49.596;11.070;2023-06-10T01:59:41;4.23;;;3.73;;
15358;SDS011;7779;49.596;11.070;2023-06-10T02:02:09;3.87;;;3.57;;
15358;SDS011;7779;49.596;11.070;2023-06-10T02:04:37;4.43;;;4.03;;
15358;SDS011;7779;49.596;11.070;2023-06-10T02:07:03;4.83;;;4.10;;
15358;SDS011;7779;49.596;11.070;2023-06-10T02:09:31;3.97;;;3.47;;
15358;SDS011;7779;49.596;11.070;2023-06-10T02:12:00;4.27;;;3.87;;
15358;SDS011;7779;49.596;11.070;2023-06-10T02:14:28;4.20;;;3.80;;
15358;SDS011;7779;49.596;11.070;2023-06-10T02:16:54;3.63;;;3.33;;
15358;SDS011;7779;49.596;11.070;2023-06-10T02:19:21;4.57;;;4.10;;
15358;SDS011;7779;49.596;11.070;2023-06-10T02:21:48;4.30;;;4.00;;
15358;SDS011;7779;49.596;11.070;2023-06-10T02:24:15;4.77;;;4.37;;
15358;SDS011;7779;49.596;11.070;2023-06-10T02:26:40;4.40;;;4.03;;
15358;SDS011;7779;49.596;11.070;2023-06-10T02:29:07;4.30;;;3.90;;
15358;SDS011;7779;49.596;11.070;2023-06-10T02:31:32;4.40;;;3.83;;
15358;SDS011;7779;49.596;11.070;2023-06-10T02:34:01;4.93;;;4.00;;
15358;SDS011;7779;49.596;11.070;2023-06-10T02:36:29;4.83;;;4.03;;
15358;SDS011;7779;49.596;11.070;2023-06-10T02:38:55;4.37;;;3.80;;
15358;SDS011;7779;49.596;11.070;2023-06-10T02:41:21;4.93;;;3.87;;
15358;SDS011;7779;49.596;11.070;2023-06-10T02:43:49;4.97;;;4.27;;
15358;SDS011;7779;49.596;11.070;2023-06-10T02:46:15;4.30;;;3.90;;
15358;SDS011;7779;49.596;11.070;2023-06-10T02:48:42;3.77;;;3.47;;
15358;SDS011;7779;49.596;11.070;2023-06-10T02:51:16;3.97;;;3.67;;
15358;SDS011;7779;49.596;11.070;2023-06-10T02:53:46;4.47;;;4.07;;
15358;SDS011;7779;49.596;11.070;2023-06-10T02:56:15;4.63;;;4.23;;
15358;SDS011;7779;49.596;11.070;2023-06-10T02:58:42;4.57;;;3.77;;
15358;SDS011;7779;49.596;11.070;2023-06-10T03:01:10;4.43;;;3.97;;
15358;SDS011;7779;49.596;11.070;2023-06-10T03:03:46;4.03;;;3.63;;
15358;SDS011;7779;49.596;11.070;2023-06-10T03:06:14;3.90;;;3.60;;
15358;SDS011;7779;49.596;11.070;2023-06-10T03:08:41;4.87;;;3.80;;
15358;SDS011;7779;49.596;11.070;2023-06-10T03:11:11;4.30;;;3.60;;
15358;SDS011;7779;49.596;11.070;2023-06-10T03:13:40;3.93;;;3.63;;
15358;SDS011;7779;49.596;11.070;2023-06-10T03:16:09;5.20;;;4.47;;
15358;SDS011;7779;49.596;11.070;2023-06-10T03:18:37;4.40;;;4.00;;
15358;SDS011;7779;49.596;11.070;2023-06-10T03:21:03;4.60;;;4.20;;
15358;SDS011;7779;49.596;11.070;2023-06-10T03:23:29;4.43;;;3.90;;
15358;SDS011;7779;49.596;11.070;2023-06-10T03:25:55;5.03;;;3.83;;
15358;SDS011;7779;49.596;11.070;2023-06-10T03:28:22;4.60;;;4.07;;
15358;SDS011;7779;49.596;11.070;2023-06-10T03:30:48;4.90;;;3.97;;
15358;SDS011;7779;49.596;11.070;2023-06-10T03:33:14;4.33;;;3.93;;
15358;SDS011;7779;49.596;11.070;2023-06-10T03:35:40;5.20;;;4.57;;
15358;SDS011;7779;49.596;11.070;2023-06-10T03:38:07;4.70;;;4.30;;
15358;SDS011;7779;49.596;11.070;2023-06-10T03:40:33;4.00;;;3.70;;
15358;SDS011;7779;49.596;11.070;2023-06-10T03:43:00;5.03;;;3.90;;
15358;SDS011;7779;49.596;11.070;2023-06-10T03:45:26;4.90;;;3.80;;
15358;SDS011;7779;49.596;11.070;2023-06-10T03:47:53;4.60;;;3.83;;
15358;SDS011;7779;49.596;11.070;2023-06-10T03:50:24;4.30;;;3.90;;
15358;SDS011;7779;49.596;11.070;2023-06-10T03:52:50;4.23;;;3.83;;
15358;SDS011;7779;49.596;11.070;2023-06-10T03:55:18;5.53;;;4.03;;
15358;SDS011;7779;49.596;11.070;2023-06-10T03:57:47;5.13;;;4.27;;
15358;SDS011;7779;49.596;11.070;2023-06-10T04:00:14;4.80;;;4.30;;
15358;SDS011;7779;49.596;11.070;2023-06-10T04:02:43;4.20;;;3.73;;
15358;SDS011;7779;49.596;11.070;2023-06-10T04:05:23;4.50;;;4.10;;
15358;SDS011;7779;49.596;11.070;2023-06-10T04:07:50;4.23;;;3.83;;
15358;SDS011;7779;49.596;11.070;2023-06-10T04:10:17;4.47;;;3.80;;
15358;SDS011;7779;49.596;11.070;2023-06-10T04:12:43;4.83;;;3.80;;
15358;SDS011;7779;49.596;11.070;2023-06-10T04:15:10;3.80;;;3.50;;
15358;SDS011;7779;49.596;11.070;2023-06-10T04:17:38;4.80;;;4.13;;
15358;SDS011;7779;49.596;11.070;2023-06-10T04:20:05;4.70;;;4.30;;
15358;SDS011;7779;49.596;11.070;2023-06-10T04:22:34;3.77;;;3.47;;
15358;SDS011;7779;49.596;11.070;2023-06-10T04:25:00;4.60;;;4.20;;
15358;SDS011;7779;49.596;11.070;2023-06-10T04:27:26;3.90;;;3.60;;
15358;SDS011;7779;49.596;11.070;2023-06-10T04:29:53;4.07;;;3.73;;
15358;SDS011;7779;49.596;11.070;2023-06-10T04:32:19;4.00;;;3.70;;
15358;SDS011;7779;49.596;11.070;2023-06-10T04:34:45;4.87;;;4.20;;
15358;SDS011;7779;49.596;11.070;2023-06-10T04:37:11;4.40;;;4.00;;
15358;SDS011;7779;49.596;11.070;2023-06-10T04:39:37;4.57;;;4.20;;
15358;SDS011;7779;49.596;11.070;2023-06-10T04:42:03;4.33;;;3.90;;
15358;SDS011;7779;49.596;11.070;2023-06-10T04:44:30;5.17;;;3.87;;
15358;SDS011;7779;49.596;11.070;2023-06-10T04:46:56;3.97;;;3.67;;
15358;SDS011;7779;49.596;11.070;2023-06-10T04:49:22;5.90;;;3.70;;
15358;SDS011;7779;49.596;11.070;2023-06-10T04:51:47;3.90;;;3.60;;
15358;SDS011;7779;49.596;11.070;2023-06-10T04:54:13;4.10;;;3.70;;
15358;SDS011;7779;49.596;11.070;2023-06-10T04:56:39;4.00;;;3.70;;
15358;SDS011;7779;49.596;11.070;2023-06-10T04:59:04;4.33;;;3.93;;
15358;SDS011;7779;49.596;11.070;2023-06-10T05:01:30;4.67;;;4.17;;
15358;SDS011;7779;49.596;11.070;2023-06-10T05:03:56;4.40;;;4.03;;
15358;SDS011;7779;49.596;11.070;2023-06-10T05:06:21;4.73;;;4.23;;
15358;SDS011;7779;49.596;11.070;2023-06-10T05:08:47;5.20;;;4.20;;
15358;SDS011;7779;49.596;11.070;2023-06-10T05:11:13;4.73;;;4.33;;
15358;SDS011;7779;49.596;11.070;2023-06-10T05:13:41;5.00;;;4.50;;
15358;SDS011;7779;49.596;11.070;2023-06-10T05:16:08;4.93;;;4.30;;
15358;SDS011;7779;49.596;11.070;2023-06-10T05:18:34;6.27;;;4.73;;
15358;SDS011;7779;49.596;11.070;2023-06-10T05:21:00;6.43;;;5.80;;
15358;SDS011;7779;49.596;11.070;2023-06-10T05:23:27;7.90;;;7.20;;
15358;SDS011;7779;49.596;11.070;2023-06-10T05:25:53;7.80;;;7.10;;
15358;SDS011;7779;49.596;11.070;2023-06-10T05:28:19;7.97;;;7.27;;
15358;SDS011;7779;49.596;11.070;2023-06-10T05:30:45;7.50;;;6.80;;
15358;SDS011;7779;49.596;11.070;2023-06-10T05:33:11;6.93;;;6.33;;
15358;SDS011;7779;49.596;11.070;2023-06-10T05:35:37;6.20;;;5.70;;
15358;SDS011;7779;49.596;11.070;2023-06-10T05:38:02;6.60;;;6.00;;
15358;SDS011;7779;49.596;11.070;2023-06-10T05:40:28;6.83;;;6.23;;
15358;SDS011;7779;49.596;11.070;2023-06-10T05:42:54;6.30;;;5.70;;
15358;SDS011;7779;49.596;11.070;2023-06-10T05:45:20;6.13;;;5.57;;
15358;SDS011;7779;49.596;11.070;2023-06-10T05:47:45;6.33;;;5.73;;
15358;SDS011;7779;49.596;11.070;2023-06-10T05:50:11;6.50;;;5.80;;
15358;SDS011;7779;49.596;11.070;2023-06-10T05:52:37;4.90;;;4.50;;
15358;SDS011;7779;49.596;11.070;2023-06-10T05:55:05;7.07;;;4.93;;
15358;SDS011;7779;49.596;11.070;2023-06-10T05:57:31;5.33;;;4.90;;
15358;SDS011;7779;49.596;11.070;2023-06-10T05:59:57;5.27;;;4.87;;
15358;SDS011;7779;49.596;11.070;2023-06-10T06:02:23;5.77;;;5.17;;
15358;SDS011;7779;49.596;11.070;2023-06-10T06:04:49;5.40;;;4.90;;
15358;SDS011;7779;49.596;11.070;2023-06-10T06:07:14;5.30;;;4.80;;
15358;SDS011;7779;49.596;11.070;2023-06-10T06:09:40;4.87;;;4.47;;
15358;SDS011;7779;49.596;11.070;2023-06-10T06:12:06;5.00;;;4.60;;
15358;SDS011;7779;49.596;11.070;2023-06-10T06:14:33;5.43;;;4.70;;
15358;SDS011;7779;49.596;11.070;2023-06-10T06:17:06;5.30;;;4.80;;
15358;SDS011;7779;49.596;11.070;2023-06-10T06:19:32;5.47;;;4.70;;
15358;SDS011;7779;49.596;11.070;2023-06-10T06:21:58;5.10;;;4.70;;
15358;SDS011;7779;49.596;11.070;2023-06-10T06:24:24;6.77;;;4.70;;
15358;SDS011;7779;49.596;11.070;2023-06-10T06:26:50;5.70;;;5.20;;
15358;SDS011;7779;49.596;11.070;2023-06-10T06:29:15;5.47;;;5.07;;
15358;SDS011;7779;49.596;11.070;2023-06-10T06:31:41;5.33;;;4.93;;
15358;SDS011;7779;49.596;11.070;2023-06-10T06:34:07;5.03;;;4.63;;
15358;SDS011;7779;49.596;11.070;2023-06-10T06:36:32;5.10;;;4.60;;
15358;SDS011;7779;49.596;11.070;2023-06-10T06:38:58;4.90;;;4.50;;
15358;SDS011;7779;49.596;11.070;2023-06-10T06:41:28;4.50;;;4.20;;
15358;SDS011;7779;49.596;11.070;2023-06-10T06:43:57;4.90;;;4.50;;
15358;SDS011;7779;49.596;11.070;2023-06-10T06:46:24;4.53;;;4.13;;
15358;SDS011;7779;49.596;11.070;2023-06-10T06:48:49;5.70;;;4.57;;
15358;SDS011;7779;49.596;11.070;2023-06-10T06:51:15;5.23;;;4.67;;
15358;SDS011;7779;49.596;11.070;2023-06-10T06:53:41;4.20;;;3.90;;
15358;SDS011;7779;49.596;11.070;2023-06-10T06:56:10;4.40;;;4.10;;
15358;SDS011;7779;49.596;11.070;2023-06-10T06:58:37;5.33;;;4.70;;
15358;SDS011;7779;49.596;11.070;2023-06-10T07:01:02;5.20;;;4.70;;
15358;SDS011;7779;49.596;11.070;2023-06-10T07:03:28;4.53;;;4.13;;
15358;SDS011;7779;49.596;11.070;2023-06-10T07:05:54;4.63;;;4.23;;
15358;SDS011;7779;49.596;11.070;2023-06-10T07:08:20;4.30;;;3.87;;
15358;SDS011;7779;49.596;11.070;2023-06-10T07:10:45;4.73;;;4.30;;
15358;SDS011;7779;49.596;11.070;2023-06-10T07:13:11;3.83;;;3.53;;
15358;SDS011;7779;49.596;11.070;2023-06-10T07:15:38;4.23;;;3.83;;
15358;SDS011;7779;49.596;11.070;2023-06-10T07:18:04;4.00;;;3.70;;
15358;SDS011;7779;49.596;11.070;2023-06-10T07:20:30;3.70;;;3.40;;
15358;SDS011;7779;49.596;11.070;2023-06-10T07:22:55;3.80;;;3.50;;
15358;SDS011;7779;49.596;11.070;2023-06-10T07:25:21;4.40;;;3.40;;
15358;SDS011;7779;49.596;11.070;2023-06-10T07:27:47;3.50;;;3.20;;
15358;SDS011;7779;49.596;11.070;2023-06-10T07:30:13;3.10;;;2.80;;
15358;SDS011;7779;49.596;11.070;2023-06-10T07:32:38;3.27;;;3.00;;
15358;SDS011;7779;49.596;11.070;2023-06-10T07:35:06;3.13;;;2.93;;
15358;SDS011;7779;49.596;11.070;2023-06-10T07:37:33;3.00;;;2.80;;
15358;SDS011;7779;49.596;11.070;2023-06-10T07:39:59;2.90;;;2.70;;
15358;SDS011;7779;49.596;11.070;2023-06-10T07:42:25;3.10;;;2.90;;
15358;SDS011;7779;49.596;11.070;2023-06-10T07:44:50;3.30;;;2.97;;
15358;SDS011;7779;49.596;11.070;2023-06-10T07:47:18;3.03;;;2.83;;
15358;SDS011;7779;49.596;11.070;2023-06-10T07:49:43;2.90;;;2.70;;
15358;SDS011;7779;49.596;11.070;2023-06-10T07:52:09;3.13;;;2.70;;
15358;SDS011;7779;49.596;11.070;2023-06-10T07:54:35;2.90;;;2.70;;
15358;SDS011;7779;49.596;11.070;2023-06-10T07:57:01;2.93;;;2.73;;
15358;SDS011;7779;49.596;11.070;2023-06-10T07:59:26;2.80;;;2.60;;
15358;SDS011;7779;49.596;11.070;2023-06-10T08:01:52;2.70;;;2.50;;
15358;SDS011;7779;49.596;11.070;2023-06-10T08:04:18;2.80;;;2.50;;
15358;SDS011;7779;49.596;11.070;2023-06-10T08:06:44;2.50;;;2.30;;
15358;SDS011;7779;49.596;11.070;2023-06-10T08:09:10;3.47;;;2.30;;
15358;SDS011;7779;49.596;11.070;2023-06-10T08:11:35;2.67;;;2.47;;
15358;SDS011;7779;49.596;11.070;2023-06-10T08:14:01;2.70;;;2.50;;
15358;SDS011;7779;49.596;11.070;2023-06-10T08:16:27;2.90;;;2.60;;
15358;SDS011;7779;49.596;11.070;2023-06-10T08:18:52;2.73;;;2.53;;
15358;SDS011;7779;49.596;11.070;2023-06-10T08:21:18;2.70;;;2.37;;
15358;SDS011;7779;49.596;11.070;2023-06-10T08:23:44;3.23;;;2.50;;
15358;SDS011;7779;49.596;11.070;2023-06-10T08:26:10;2.47;;;2.23;;
15358;SDS011;7779;49.596;11.070;2023-06-10T08:28:36;2.43;;;2.33;;
15358;SDS011;7779;49.596;11.070;2023-06-10T08:31:01;2.43;;;2.30;;
15358;SDS011;7779;49.596;11.070;2023-06-10T08:33:27;2.40;;;2.20;;
15358;SDS011;7779;49.596;11.070;2023-06-10T08:35:53;2.77;;;2.57;;
15358;SDS011;7779;49.596;11.070;2023-06-10T08:38:18;2.53;;;2.33;;
15358;SDS011;7779;49.596;11.070;2023-06-10T08:40:44;2.43;;;2.27;;
15358;SDS011;7779;49.596;11.070;2023-06-10T08:43:19;2.77;;;2.57;;
15358;SDS011;7779;49.596;11.070;2023-06-10T08:46:07;2.03;;;1.93;;
15358;SDS011;7779;49.596;11.070;2023-06-10T08:48:41;2.30;;;2.10;;
15358;SDS011;7779;49.596;11.070;2023-06-10T08:51:11;3.53;;;2.20;;
15358;SDS011;7779;49.596;11.070;2023-06-10T08:53:42;2.20;;;2.10;;
15358;SDS011;7779;49.596;11.070;2023-06-10T08:56:28;2.40;;;2.20;;
15358;SDS011;7779;49.596;11.070;2023-06-10T08:58:56;2.77;;;2.57;;
15358;SDS011;7779;49.596;11.070;2023-06-10T09:01:23;2.00;;;1.90;;
15358;SDS011;7779;49.596;11.070;2023-06-10T09:03:50;2.40;;;2.20;;
15358;SDS011;7779;49.596;11.070;2023-06-10T09:06:17;2.03;;;1.83;;
15358;SDS011;7779;49.596;11.070;2023-06-10T09:08:43;2.10;;;2.00;;
15358;SDS011;7779;49.596;11.070;2023-06-10T09:11:09;2.10;;;2.00;;
15358;SDS011;7779;49.596;11.070;2023-06-10T09:13:35;1.93;;;1.83;;
15358;SDS011;7779;49.596;11.070;2023-06-10T09:16:01;2.00;;;1.90;;
15358;SDS011;7779;49.596;11.070;2023-06-10T09:18:28;2.17;;;1.77;;
15358;SDS011;7779;49.596;11.070;2023-06-10T09:20:56;1.77;;;1.67;;
15358;SDS011;7779;49.596;11.070;2023-06-10T09:23:21;2.17;;;2.00;;
15358;SDS011;7779;49.596;11.070;2023-06-10T09:25:48;2.13;;;2.03;;
15358;SDS011;7779;49.596;11.070;2023-06-10T09:28:24;1.80;;;1.70;;
15358;SDS011;7779;49.596;11.070;2023-06-10T09:30:50;1.80;;;1.70;;
15358;SDS011;7779;49.596;11.070;2023-06-10T09:33:30;2.00;;;1.90;;
15358;SDS011;7779;49.596;11.070;2023-06-10T09:35:56;2.00;;;1.90;;
15358;SDS011;7779;49.596;11.070;2023-06-10T09:38:29;2.57;;;1.63;;
15358;SDS011;7779;49.596;11.070;2023-06-10T09:40:57;2.03;;;1.93;;
15358;SDS011;7779;49.596;11.070;2023-06-10T09:43:24;2.33;;;2.13;;
15358;SDS011;7779;49.596;11.070;2023-06-10T09:46:17;1.97;;;1.87;;
15358;SDS011;7779;49.596;11.070;2023-06-10T09:48:45;1.90;;;1.80;;
15358;SDS011;7779;49.596;11.070;2023-06-10T09:51:13;2.00;;;1.90;;
15358;SDS011;7779;49.596;11.070;2023-06-10T09:53:42;2.80;;;1.87;;
15358;SDS011;7779;49.596;11.070;2023-06-10T09:56:07;2.13;;;2.03;;
15358;SDS011;7779;49.596;11.070;2023-06-10T09:58:39;2.33;;;2.17;;
15358;SDS011;7779;49.596;11.070;2023-06-10T10:01:08;2.53;;;1.83;;
15358;SDS011;7779;49.596;11.070;2023-06-10T10:03:43;1.70;;;1.60;;
15358;SDS011;7779;49.596;11.070;2023-06-10T10:06:14;1.97;;;1.87;;
15358;SDS011;7779;49.596;11.070;2023-06-10T10:08:41;2.30;;;2.10;;
15358;SDS011;7779;49.596;11.070;2023-06-10T10:11:08;2.10;;;2.00;;
15358;SDS011;7779;49.596;11.070;2023-06-10T10:13:35;1.97;;;1.87;;
15358;SDS011;7779;49.596;11.070;2023-06-10T10:16:04;2.40;;;2.20;;
15358;SDS011;7779;49.596;11.070;2023-06-10T10:18:37;2.43;;;2.10;;
15358;SDS011;7779;49.596;11.070;2023-06-10T10:21:11;2.23;;;2.03;;
15358;SDS011;7779;49.596;11.070;2023-06-10T10:24:26;1.97;;;1.87;;
15358;SDS011;7779;49.596;11.070;2023-06-10T10:26:46;2.20;;;1.83;;
15358;SDS011;7779;49.596;11.070;2023-06-10T10:29:20;2.23;;;2.13;;
15358;SDS011;7779;49.596;11.070;2023-06-10T10:31:55;2.07;;;1.97;;
15358;SDS011;7779;49.596;11.070;2023-06-10T10:37:29;2.30;;;2.00;;
15358;SDS011;7779;49.596;11.070;2023-06-10T10:39:56;2.30;;;2.10;;
15358;SDS011;7779;49.596;11.070;2023-06-10T10:42:24;2.20;;;2.10;;
15358;SDS011;7779;49.596;11.070;2023-06-10T10:44:51;2.10;;;1.97;;
15358;SDS011;7779;49.596;11.070;2023-06-10T10:47:20;2.17;;;1.97;;
15358;SDS011;7779;49.596;11.070;2023-06-10T10:49:48;2.53;;;2.00;;
15358;SDS011;7779;49.596;11.070;2023-06-10T10:52:17;2.10;;;1.97;;
15358;SDS011;7779;49.596;11.070;2023-06-10T10:54:44;2.20;;;2.00;;
15358;SDS011;7779;49.596;11.070;2023-06-10T10:57:16;2.43;;;2.10;;
15358;SDS011;7779;49.596;11.070;2023-06-10T11:02:17;2.30;;;2.13;;
15358;SDS011;7779;49.596;11.070;2023-06-10T11:04:56;1.87;;;1.77;;
15358;SDS011;7779;49.596;11.070;2023-06-10T11:07:24;2.20;;;2.10;;
15358;SDS011;7779;49.596;11.070;2023-06-10T11:10:09;2.20;;;2.00;;
15358;SDS011;7779;49.596;11.070;2023-06-10T11:12:41;2.10;;;2.00;;
15358;SDS011;7779;49.596;11.070;2023-06-10T11:15:18;2.33;;;2.13;;
15358;SDS011;7779;49.596;11.070;2023-06-10T11:31:23;2.50;;;2.30;;
15358;SDS011;7779;49.596;11.070;2023-06-10T11:34:03;2.43;;;2.17;;
15358;SDS011;7779;49.596;11.070;2023-06-10T11:36:31;2.83;;;2.40;;
15358;SDS011;7779;49.596;11.070;2023-06-10T11:39:02;2.60;;;2.30;;
15358;SDS011;7779;49.596;11.070;2023-06-10T11:41:31;2.30;;;2.20;;
15358;SDS011;7779;49.596;11.070;2023-06-10T11:44:02;2.40;;;2.30;;
15358;SDS011;7779;49.596;11.070;2023-06-10T11:46:36;2.70;;;2.50;;
15358;SDS011;7779;49.596;11.070;2023-06-10T11:49:02;2.17;;;2.00;;
15358;SDS011;7779;49.596;11.070;2023-06-10T11:51:39;2.47;;;2.30;;
15358;SDS011;7779;49.596;11.070;2023-06-10T11:54:13;3.67;;;2.13;;
15358;SDS011;7779;49.596;11.070;2023-06-10T11:56:40;2.70;;;2.07;;
15358;SDS011;7779;49.596;11.070;2023-06-10T11:59:06;2.20;;;2.00;;
15358;SDS011;7779;49.596;11.070;2023-06-10T12:01:36;2.20;;;2.10;;
15358;SDS011;7779;49.596;11.070;2023-06-10T12:04:08;2.47;;;2.27;;
15358;SDS011;7779;49.596;11.070;2023-06-10T12:06:42;2.17;;;2.07;;
15358;SDS011;7779;49.596;11.070;2023-06-10T12:09:20;2.20;;;2.10;;
15358;SDS011;7779;49.596;11.070;2023-06-10T12:11:53;2.60;;;2.40;;
15358;SDS011;7779;49.596;11.070;2023-06-10T12:20:08;1.97;;;1.87;;
15358;SDS011;7779;49.596;11.070;2023-06-10T12:22:51;2.10;;;2.00;;
15358;SDS011;7779;49.596;11.070;2023-06-10T12:25:16;1.80;;;1.60;;
15358;SDS011;7779;49.596;11.070;2023-06-10T12:27:51;1.77;;;1.67;;
15358;SDS011;7779;49.596;11.070;2023-06-10T12:30:19;1.80;;;1.70;;
15358;SDS011;7779;49.596;11.070;2023-06-10T12:32:46;2.03;;;1.93;;
15358;SDS011;7779;49.596;11.070;2023-06-10T12:35:15;2.00;;;1.90;;
15358;SDS011;7779;49.596;11.070;2023-06-10T12:38:03;1.93;;;1.83;;
15358;SDS011;7779;49.596;11.070;2023-06-10T12:40:39;2.07;;;1.97;;
15358;SDS011;7779;49.596;11.070;2023-06-10T12:43:08;1.80;;;1.70;;
15358;SDS011;7779;49.596;11.070;2023-06-10T12:45:38;6.93;;;1.83;;
15358;SDS011;7779;49.596;11.070;2023-06-10T12:48:10;1.70;;;1.60;;
15358;SDS011;7779;49.596;11.070;2023-06-10T12:50:51;1.87;;;1.77;;
15358;SDS011;7779;49.596;11.070;2023-06-10T12:53:20;2.03;;;1.93;;
15358;SDS011;7779;49.596;11.070;2023-06-10T12:55:51;1.73;;;1.60;;
15358;SDS011;7779;49.596;11.070;2023-06-10T12:58:21;2.60;;;1.80;;
15358;SDS011;7779;49.596;11.070;2023-06-10T13:00:47;1.87;;;1.77;;
15358;SDS011;7779;49.596;11.070;2023-06-10T13:03:13;1.83;;;1.73;;
15358;SDS011;7779;49.596;11.070;2023-06-10T13:05:40;1.90;;;1.80;;
15358;SDS011;7779;49.596;11.070;2023-06-10T13:08:06;1.77;;;1.67;;
15358;SDS011;7779;49.596;11.070;2023-06-10T13:10:38;1.90;;;1.80;;
15358;SDS011;7779;49.596;11.070;2023-06-10T13:13:04;1.63;;;1.53;;
15358;SDS011;7779;49.596;11.070;2023-06-10T13:15:31;1.57;;;1.47;;
15358;SDS011;7779;49.596;11.070;2023-06-10T13:18:01;1.70;;;1.60;;
15358;SDS011;7779;49.596;11.070;2023-06-10T13:20:30;1.90;;;1.80;;
15358;SDS011;7779;49.596;11.070;2023-06-10T13:22:56;1.67;;;1.40;;
15358;SDS011;7779;49.596;11.070;2023-06-10T13:25:22;1.40;;;1.30;;
15358;SDS011;7779;49.596;11.070;2023-06-10T13:27:48;3.13;;;1.33;;
15358;SDS011;7779;49.596;11.070;2023-06-10T13:30:14;1.60;;;1.50;;
15358;SDS011;7779;49.596;11.070;2023-06-10T13:32:40;1.63;;;1.53;;
15358;SDS011;7779;49.596;11.070;2023-06-10T13:35:05;1.50;;;1.40;;
15358;SDS011;7779;49.596;11.070;2023-06-10T13:37:32;1.60;;;1.50;;
15358;SDS011;7779;49.596;11.070;2023-06-10T13:39:58;1.60;;;1.50;;
15358;SDS011;7779;49.596;11.070;2023-06-10T13:42:24;1.60;;;1.50;;
15358;SDS011;7779;49.596;11.070;2023-06-10T13:44:54;1.60;;;1.50;;
15358;SDS011;7779;49.596;11.070;2023-06-10T13:47:19;1.37;;;1.30;;
15358;SDS011;7779;49.596;11.070;2023-06-10T13:49:45;1.70;;;1.60;;
15358;SDS011;7779;49.596;11.070;2023-06-10T13:52:11;1.57;;;1.47;;
15358;SDS011;7779;49.596;11.070;2023-06-10T13:54:37;1.70;;;1.60;;
15358;SDS011;7779;49.596;11.070;2023-06-10T13:57:03;1.33;;;1.27;;
15358;SDS011;7779;49.596;11.070;2023-06-10T13:59:29;1.60;;;1.50;;
15358;SDS011;7779;49.596;11.070;2023-06-10T14:01:55;1.77;;;1.67;;
15358;SDS011;7779;49.596;11.070;2023-06-10T14:04:21;1.40;;;1.30;;
15358;SDS011;7779;49.596;11.070;2023-06-10T14:06:47;1.60;;;1.50;;
15358;SDS011;7779;49.596;11.070;2023-06-10T14:09:13;1.93;;;1.83;;
15358;SDS011;7779;49.596;11.070;2023-06-10T14:11:39;1.73;;;1.63;;
15358;SDS011;7779;49.596;11.070;2023-06-10T14:14:05;1.60;;;1.50;;
15358;SDS011;7779;49.596;11.070;2023-06-10T14:16:31;1.53;;;1.43;;
15358;SDS011;7779;49.596;11.070;2023-06-10T14:18:57;1.60;;;1.50;;
15358;SDS011;7779;49.596;11.070;2023-06-10T14:21:22;1.90;;;1.80;;
15358;SDS011;7779;49.596;11.070;2023-06-10T14:23:48;1.50;;;1.40;;
15358;SDS011;7779;49.596;11.070;2023-06-10T14:26:15;1.60;;;1.50;;
15358;SDS011;7779;49.596;11.070;2023-06-10T14:28:40;1.50;;;1.40;;
15358;SDS011;7779;49.596;11.070;2023-06-10T14:31:06;1.60;;;1.40;;
15358;SDS011;7779;49.596;11.070;2023-06-10T14:33:32;1.63;;;1.53;;
15358;SDS011;7779;49.596;11.070;2023-06-10T14:35:58;1.40;;;1.30;;
15358;SDS011;7779;49.596;11.070;2023-06-10T14:38:24;1.50;;;1.40;;
15358;SDS011;7779;49.596;11.070;2023-06-10T14:40:50;1.40;;;1.30;;
15358;SDS011;7779;49.596;11.070;2023-06-10T14:43:17;1.50;;;1.40;;
15358;SDS011;7779;49.596;11.070;2023-06-10T14:45:43;1.70;;;1.60;;
15358;SDS011;7779;49.596;11.070;2023-06-10T14:48:09;1.50;;;1.40;;
15358;SDS011;7779;49.596;11.070;2023-06-10T14:50:35;1.70;;;1.60;;
15358;SDS011;7779;49.596;11.070;2023-06-10T14:53:02;1.70;;;1.60;;
15358;SDS011;7779;49.596;11.070;2023-06-10T14:55:28;2.00;;;1.90;;
15358;SDS011;7779;49.596;11.070;2023-06-10T14:57:54;1.73;;;1.63;;
15358;SDS011;7779;49.596;11.070;2023-06-10T15:00:21;1.90;;;1.80;;
15358;SDS011;7779;49.596;11.070;2023-06-10T15:02:48;1.80;;;1.70;;
15358;SDS011;7779;49.596;11.070;2023-06-10T15:05:15;2.00;;;1.90;;
15358;SDS011;7779;49.596;11.070;2023-06-10T15:07:43;2.10;;;2.00;;
15358;SDS011;7779;49.596;11.070;2023-06-10T15:10:10;1.97;;;1.80;;
15358;SDS011;7779;49.596;11.070;2023-06-10T15:12:36;1.80;;;1.70;;
15358;SDS011;7779;49.596;11.070;2023-06-10T15:15:02;2.20;;;2.10;;
15358;SDS011;7779;49.596;11.070;2023-06-10T15:17:28;2.07;;;1.97;;
15358;SDS011;7779;49.596;11.070;2023-06-10T15:19:54;2.37;;;2.27;;
15358;SDS011;7779;49.596;11.070;2023-06-10T15:22:20;2.57;;;2.37;;
15358;SDS011;7779;49.596;11.070;2023-06-10T15:24:46;2.60;;;2.40;;